createdAt,value
2022-10-05T00:02:34.354Z,101115.03
2022-10-05T00:05:36.737Z,101111.94
2022-10-05T00:08:39.413Z,101130.19
2022-10-05T00:11:41.869Z,101125.88
2022-10-05T00:14:45.915Z,101130.84
2022-10-05T00:17:48.486Z,101121.81
2022-10-05T00:20:50.948Z,101119.75
2022-10-05T00:23:56.314Z,101139.00
2022-10-05T00:27:21.125Z,101123.59
2022-10-05T00:30:25.464Z,101128.72
2022-10-05T00:33:27.951Z,101117.66
2022-10-05T00:36:30.304Z,101119.69
2022-10-05T00:39:33.574Z,101118.66
2022-10-05T00:43:25.850Z,101120.06
2022-10-05T00:46:40.166Z,101113.53
2022-10-05T00:50:00.732Z,101124.84
2022-10-05T00:53:24.899Z,101119.25
2022-10-05T00:56:46.643Z,101117.41
2022-10-05T00:59:52.081Z,101121.63
2022-10-05T01:03:15.333Z,101117.31
2022-10-05T01:06:39.288Z,101125.09
2022-10-05T01:09:59.054Z,101116.88
2022-10-05T01:13:26.450Z,101114.25
2022-10-05T01:16:34.476Z,101124.03
2022-10-05T01:19:42.859Z,101133.72
2022-10-05T01:23:22.543Z,101144.78
2022-10-05T01:26:56.972Z,101149.06
2022-10-05T01:30:16.244Z,101147.25
2022-10-05T01:33:52.837Z,101154.47
2022-10-05T01:36:58.075Z,101154.03
2022-10-05T01:40:08.494Z,101160.56
2022-10-05T01:43:33.005Z,101152.97
2022-10-05T01:46:52.605Z,101165.28
2022-10-05T01:50:00.773Z,101154.53
2022-10-05T01:53:30.822Z,101157.84
2022-10-05T01:56:43.576Z,101156.84
2022-10-05T02:00:07.826Z,101167.50
2022-10-05T02:03:24.828Z,101165.06
2022-10-05T02:06:31.707Z,101168.72
2022-10-05T02:09:38.008Z,101140.00
2022-10-05T02:12:41.127Z,101156.75
2022-10-05T02:15:57.023Z,101166.38
2022-10-05T02:19:00.698Z,101170.03
2022-10-05T02:22:06.772Z,101179.63
2022-10-05T02:25:18.809Z,101180.63
2022-10-05T02:28:33.886Z,101185.16
2022-10-05T02:31:58.630Z,101181.72
2022-10-05T02:35:09.625Z,101179.63
2022-10-05T02:38:17.349Z,101184.03
2022-10-05T02:41:32.746Z,101189.34
2022-10-05T02:44:53.739Z,101186.91
2022-10-05T02:48:19.274Z,101187.47
2022-10-05T02:51:32.322Z,101188.19
2022-10-05T02:54:47.417Z,101181.56
2022-10-05T02:58:02.296Z,101186.63
2022-10-05T03:01:07.615Z,101193.44
2022-10-05T03:04:21.683Z,101201.00
2022-10-05T03:07:29.761Z,101198.47
2022-10-05T03:10:45.663Z,101180.88
2022-10-05T03:13:50.889Z,101196.63
2022-10-05T03:17:15.153Z,101173.47
2022-10-05T03:20:24.302Z,101166.00
2022-10-05T03:23:54.487Z,101175.66
2022-10-05T03:27:09.294Z,101169.66
2022-10-05T03:30:23.459Z,101159.25
2022-10-05T03:33:40.777Z,101166.25
2022-10-05T03:36:52.486Z,101166.06
2022-10-05T03:40:01.000Z,101156.44
2022-10-05T03:43:33.627Z,101155.53
2022-10-05T03:47:04.689Z,101182.63
2022-10-05T03:50:46.433Z,101175.47
2022-10-05T03:53:53.317Z,101165.22
2022-10-05T03:56:58.174Z,101186.00
2022-10-05T04:00:05.661Z,101199.56
2022-10-05T04:03:27.485Z,101194.56
2022-10-05T04:06:44.669Z,101188.41
2022-10-05T04:09:48.951Z,101187.53
2022-10-05T04:12:58.701Z,101183.19
2022-10-05T04:16:06.639Z,101194.34
2022-10-05T04:19:21.342Z,101193.75
2022-10-05T04:22:29.905Z,101186.91
2022-10-05T04:25:46.541Z,101190.00
2022-10-05T04:28:52.665Z,101190.81
2022-10-05T04:32:19.913Z,101197.69
2022-10-05T04:35:40.787Z,101195.03
2022-10-05T04:39:00.387Z,101193.41
2022-10-05T04:42:11.530Z,101210.91
2022-10-05T04:45:37.848Z,101192.44
2022-10-05T04:48:49.945Z,101202.53
2022-10-05T04:52:09.801Z,101193.59
2022-10-05T04:55:35.780Z,101188.66
2022-10-05T04:59:17.753Z,101211.06
2022-10-05T05:02:32.422Z,101199.59
2022-10-05T05:05:53.031Z,101196.63
2022-10-05T05:09:29.037Z,101194.22
2022-10-05T05:12:37.600Z,101194.75
2022-10-05T05:15:58.747Z,101194.28
2022-10-05T05:19:35.669Z,101198.91
2022-10-05T05:22:45.811Z,101200.94
2022-10-05T05:25:54.435Z,101189.97
2022-10-05T05:29:20.980Z,101199.84
2022-10-05T05:32:49.572Z,101204.41
2022-10-05T05:36:23.260Z,101206.72
2022-10-05T05:39:51.580Z,101203.53
2022-10-05T05:43:06.775Z,101215.72
2022-10-05T05:46:15.934Z,101220.38
2022-10-05T05:49:25.271Z,101219.38
2022-10-05T05:52:41.703Z,101223.06
2022-10-05T05:55:56.499Z,101233.31
2022-10-05T05:59:22.757Z,101243.06
2022-10-05T06:02:30.508Z,101247.66
2022-10-05T06:05:49.914Z,101270.00
2022-10-05T06:09:03.238Z,101257.22
2022-10-05T06:12:28.343Z,101265.00
2022-10-05T06:15:42.396Z,101285.03
2022-10-05T06:18:48.998Z,101290.84
2022-10-05T06:21:56.590Z,101287.97
2022-10-05T06:25:26.751Z,101301.66
2022-10-05T06:28:30.604Z,101300.31
2022-10-05T06:31:36.034Z,101301.56
2022-10-05T06:35:01.698Z,101306.38
2022-10-05T06:38:48.434Z,101322.06
2022-10-05T06:41:59.952Z,101312.88
2022-10-05T06:45:42.585Z,101297.66
2022-10-05T06:49:29.951Z,101306.50
2022-10-05T06:53:32.239Z,101309.16
2022-10-05T06:57:07.940Z,101319.84
2022-10-05T07:00:20.381Z,101326.78
2022-10-05T07:03:51.708Z,101310.50
2022-10-05T07:07:26.899Z,101330.78
2022-10-05T07:10:33.952Z,101343.88
2022-10-05T07:14:03.600Z,101344.25
2022-10-05T07:17:34.850Z,101339.34
2022-10-05T07:21:20.591Z,101327.28
2022-10-05T07:24:32.644Z,101331.16
2022-10-05T07:27:49.474Z,101312.91
2022-10-05T07:30:57.135Z,101331.88
2022-10-05T07:34:17.841Z,101340.50
2022-10-05T07:37:54.585Z,101335.88
2022-10-05T07:41:07.488Z,101333.78
2022-10-05T07:44:27.233Z,101341.78
2022-10-05T07:47:51.810Z,101328.31
2022-10-05T07:51:06.781Z,101328.91
2022-10-05T07:54:31.101Z,101335.66
2022-10-05T07:57:39.715Z,101324.88
2022-10-05T08:00:54.831Z,101329.03
2022-10-05T08:04:03.522Z,101335.16
2022-10-05T08:07:07.579Z,101330.84
2022-10-05T08:10:42.244Z,101351.28
2022-10-05T08:13:52.023Z,101322.28
2022-10-05T08:16:58.121Z,101322.16
2022-10-05T08:20:06.182Z,101315.16
2022-10-05T08:23:21.598Z,101312.78
2022-10-05T08:26:38.919Z,101305.22
2022-10-05T08:29:47.774Z,101299.78
2022-10-05T08:32:57.497Z,101295.00
2022-10-05T08:36:10.950Z,101293.19
2022-10-05T08:39:17.414Z,101299.47
2022-10-05T08:42:57.541Z,101311.19
2022-10-05T08:46:08.448Z,101302.69
2022-10-05T08:49:56.959Z,101301.72
2022-10-05T08:53:12.418Z,101294.66
2022-10-05T08:56:23.117Z,101305.25
2022-10-05T08:59:56.591Z,101301.50
2022-10-05T09:03:16.909Z,101290.72
2022-10-05T09:06:31.653Z,101306.34
2022-10-05T09:09:59.487Z,101313.06
2022-10-05T09:13:22.758Z,101320.06
2022-10-05T09:16:58.796Z,101313.63
2022-10-05T09:20:11.240Z,101322.91
2022-10-05T09:23:21.730Z,101315.34
2022-10-05T09:26:26.889Z,101326.06
2022-10-05T09:29:50.569Z,101326.50
2022-10-05T09:33:08.477Z,101330.06
2022-10-05T09:36:13.698Z,101327.34
2022-10-05T09:40:01.486Z,101326.72
2022-10-05T09:43:23.188Z,101333.16
2022-10-05T09:47:04.579Z,101322.97
2022-10-05T09:50:19.183Z,101337.78
2022-10-05T09:53:38.580Z,101321.84
2022-10-05T09:57:00.328Z,101311.97
2022-10-05T10:00:30.583Z,101321.19
2022-10-05T10:03:45.292Z,101324.06
2022-10-05T10:06:56.449Z,101321.03
2022-10-05T10:10:17.386Z,101327.28
2022-10-05T10:13:22.498Z,101309.69
2022-10-05T10:16:32.818Z,101310.56
2022-10-05T10:19:44.035Z,101312.38
2022-10-05T10:23:08.128Z,101317.91
2022-10-05T10:26:55.994Z,101309.47
2022-10-05T10:30:01.095Z,101316.06
2022-10-05T10:33:32.961Z,101325.41
2022-10-05T10:36:35.136Z,101322.28
2022-10-05T10:40:20.355Z,101310.34
2022-10-05T10:43:54.091Z,101315.19
2022-10-05T10:47:11.230Z,101313.56
2022-10-05T10:50:24.824Z,101314.22
2022-10-05T10:53:46.478Z,101316.22
2022-10-05T10:57:06.673Z,101328.06
2022-10-05T11:00:30.148Z,101325.38
2022-10-05T11:04:13.656Z,101327.91
2022-10-05T11:07:34.282Z,101322.16
2022-10-05T11:10:58.928Z,101315.78
2022-10-05T11:14:03.800Z,101304.25
2022-10-05T11:17:15.784Z,101305.97
2022-10-05T11:20:48.437Z,101313.53
2022-10-05T11:24:29.517Z,101313.03
2022-10-05T11:27:42.627Z,101296.31
2022-10-05T11:31:09.523Z,101289.00
2022-10-05T11:34:41.054Z,101288.66
2022-10-05T11:38:20.778Z,101288.34
2022-10-05T11:41:50.739Z,101276.59
2022-10-05T11:45:24.222Z,101289.38
2022-10-05T11:48:48.125Z,101269.00
2022-10-05T11:52:25.328Z,101276.34
2022-10-05T11:55:38.098Z,101264.22
2022-10-05T11:58:49.698Z,101265.28
2022-10-05T12:02:01.136Z,101260.75
2022-10-05T12:05:05.468Z,101256.28
2022-10-05T12:08:23.044Z,101252.78
2022-10-05T12:11:47.139Z,101262.81
2022-10-05T12:15:12.718Z,101265.06
2022-10-05T12:18:26.901Z,101257.75
2022-10-05T12:21:36.497Z,101240.59
2022-10-05T12:24:38.679Z,101249.31
2022-10-05T12:27:46.347Z,101241.72
2022-10-05T12:30:48.842Z,101250.09
2022-10-05T12:34:09.546Z,101247.03
2022-10-05T12:37:32.047Z,101237.44
2022-10-05T12:40:47.846Z,101230.50
2022-10-05T12:44:06.969Z,101230.41
2022-10-05T12:47:23.790Z,101235.31
2022-10-05T12:50:35.054Z,101226.38
2022-10-05T12:53:53.636Z,101227.44
2022-10-05T12:57:03.144Z,101213.91
2022-10-05T13:00:21.763Z,101218.66
2022-10-05T13:03:38.187Z,101215.94
2022-10-05T13:06:51.929Z,101213.69
2022-10-05T13:10:22.891Z,101218.84
2022-10-05T13:13:28.685Z,101229.38
2022-10-05T13:16:55.316Z,101210.91
2022-10-05T13:20:02.497Z,101208.56
2022-10-05T13:23:12.418Z,101213.59
2022-10-05T13:26:18.291Z,101215.16
2022-10-05T13:29:42.728Z,101196.06
2022-10-05T13:32:48.237Z,101200.88
2022-10-05T13:35:59.016Z,101206.78
2022-10-05T13:39:04.281Z,101204.47
2022-10-05T13:42:10.043Z,101205.84
2022-10-05T13:45:24.128Z,101191.41
2022-10-05T13:48:59.645Z,101194.69
2022-10-05T13:52:08.769Z,101202.44
2022-10-05T13:55:31.985Z,101199.84
2022-10-05T13:58:58.356Z,101197.31
2022-10-05T14:02:08.047Z,101191.28
2022-10-05T14:05:25.375Z,101199.34
2022-10-05T14:08:35.890Z,101199.50
2022-10-05T14:11:50.915Z,101200.06
2022-10-05T14:14:55.254Z,101200.06
2022-10-05T14:17:57.481Z,101203.94
2022-10-05T14:21:03.116Z,101201.19
2022-10-05T14:24:32.201Z,101193.53
2022-10-05T14:27:57.575Z,101190.84
2022-10-05T14:31:02.231Z,101197.84
2022-10-05T14:34:29.330Z,101198.75
2022-10-05T14:37:43.302Z,101203.41
2022-10-05T14:40:45.558Z,101198.03
2022-10-05T14:44:09.721Z,101204.56
2022-10-05T14:47:22.907Z,101203.84
2022-10-05T14:50:29.478Z,101201.63
2022-10-05T14:53:43.784Z,101206.75
2022-10-05T14:56:50.418Z,101193.13
2022-10-05T15:00:04.414Z,101203.50
2022-10-05T15:03:29.969Z,101186.31
2022-10-05T15:06:42.202Z,101187.97
2022-10-05T15:10:36.907Z,101173.91
2022-10-05T15:13:42.537Z,101171.63
2022-10-05T15:16:45.386Z,101158.34
2022-10-05T15:20:06.397Z,101168.06
2022-10-05T15:23:47.574Z,101180.81
2022-10-05T15:26:52.646Z,101177.22
2022-10-05T15:30:18.208Z,101179.44
2022-10-05T15:33:46.386Z,101172.59
2022-10-05T15:36:54.508Z,101173.41
2022-10-05T15:39:59.305Z,101168.59
2022-10-05T15:43:04.709Z,101171.63
2022-10-05T15:46:10.585Z,101171.06
2022-10-05T15:49:24.142Z,101153.66
2022-10-05T15:52:57.028Z,101151.94
2022-10-05T15:56:19.624Z,101164.19
2022-10-05T15:59:29.187Z,101160.94
2022-10-05T16:02:34.510Z,101164.69
2022-10-05T16:06:07.999Z,101167.78
2022-10-05T16:09:31.656Z,101166.59
2022-10-05T16:12:56.368Z,101184.41
2022-10-05T16:16:12.663Z,101167.72
2022-10-05T16:19:51.584Z,101171.16
2022-10-05T16:23:18.677Z,101168.50
2022-10-05T16:26:32.726Z,101181.63
2022-10-05T16:30:26.456Z,101188.53
2022-10-05T16:33:47.074Z,101183.44
2022-10-05T16:37:13.679Z,101185.91
2022-10-05T16:40:26.534Z,101192.25
2022-10-05T16:43:44.977Z,101193.84
2022-10-05T16:46:57.478Z,101176.38
2022-10-05T16:50:12.067Z,101198.81
2022-10-05T16:53:35.783Z,101200.47
2022-10-05T16:56:42.977Z,101184.16
2022-10-05T17:00:08.833Z,101204.47
2022-10-05T17:03:21.862Z,101187.31
2022-10-05T17:06:34.597Z,101215.13
2022-10-05T17:09:43.053Z,101220.59
2022-10-05T17:13:13.665Z,101213.16
2022-10-05T17:16:43.053Z,101228.09
2022-10-05T17:19:48.389Z,101236.38
2022-10-05T17:22:53.299Z,101218.75
2022-10-05T17:26:16.204Z,101210.09
2022-10-05T17:29:32.182Z,101225.75
2022-10-05T17:32:39.562Z,101223.53
2022-10-05T17:35:56.899Z,101235.19
2022-10-05T17:39:13.218Z,101232.19
2022-10-05T17:42:30.655Z,101231.59
2022-10-05T17:45:32.830Z,101231.94
2022-10-05T17:49:04.086Z,101232.63
2022-10-05T17:52:43.751Z,101240.19
2022-10-05T17:55:46.381Z,101226.50
2022-10-05T17:58:54.559Z,101237.38
2022-10-05T18:02:16.002Z,101230.72
2022-10-05T18:05:27.983Z,101226.16
2022-10-05T18:08:37.790Z,101226.72
2022-10-05T18:11:45.168Z,101218.78
2022-10-05T18:15:03.222Z,101224.88
2022-10-05T18:18:35.806Z,101235.28
2022-10-05T18:21:38.854Z,101222.09
2022-10-05T18:25:04.051Z,101236.56
2022-10-05T18:28:25.354Z,101236.66
2022-10-05T18:32:06.056Z,101237.81
2022-10-05T18:35:25.221Z,101227.66
2022-10-05T18:38:54.525Z,101231.38
2022-10-05T18:42:23.096Z,101228.13
2022-10-05T18:45:46.763Z,101235.44
2022-10-05T18:49:01.250Z,101232.75
2022-10-05T18:52:22.039Z,101231.28
2022-10-05T18:55:31.552Z,101224.63
2022-10-05T18:58:35.279Z,101235.00
2022-10-05T19:01:43.760Z,101234.53
2022-10-05T19:05:29.300Z,101230.09
2022-10-05T19:08:44.889Z,101214.63
2022-10-05T19:11:57.508Z,101216.44
2022-10-05T19:14:59.742Z,101225.38
2022-10-05T19:18:08.177Z,101228.50
2022-10-05T19:21:27.021Z,101215.63
2022-10-05T19:24:55.036Z,101243.09
2022-10-05T19:28:14.195Z,101242.00
2022-10-05T19:31:30.725Z,101248.13
2022-10-05T19:34:55.076Z,101239.59
2022-10-05T19:38:26.716Z,101244.97
2022-10-05T19:41:47.617Z,101249.16
2022-10-05T19:44:49.938Z,101249.16
2022-10-05T19:48:16.539Z,101254.47
2022-10-05T19:51:28.796Z,101253.25
2022-10-05T19:54:31.722Z,101246.09
2022-10-05T19:57:34.640Z,101244.56
2022-10-05T20:00:37.933Z,101244.00
2022-10-05T20:03:41.522Z,101249.03
2022-10-05T20:06:43.826Z,101258.88
2022-10-05T20:09:56.737Z,101262.50
2022-10-05T20:13:00.771Z,101258.03
2022-10-05T20:16:35.447Z,101269.50
2022-10-05T20:19:57.533Z,101272.41
2022-10-05T20:23:20.768Z,101268.00
2022-10-05T20:27:02.096Z,101283.59
2022-10-05T20:30:05.870Z,101273.97
2022-10-05T20:33:14.608Z,101278.28
2022-10-05T20:36:16.970Z,101265.78
2022-10-05T20:39:21.356Z,101280.66
2022-10-05T20:42:23.950Z,101271.00
2022-10-05T20:45:26.412Z,101279.03
2022-10-05T20:48:29.047Z,101276.03
2022-10-05T20:51:31.565Z,101265.88
2022-10-05T20:54:33.999Z,101281.94
2022-10-05T20:57:41.594Z,101280.97
2022-10-05T21:01:02.243Z,101274.66
2022-10-05T21:04:06.950Z,101269.56
2022-10-05T21:07:09.305Z,101276.00
2022-10-05T21:10:14.357Z,101278.53
2022-10-05T21:13:17.737Z,101268.69
2022-10-05T21:16:21.101Z,101282.63
2022-10-05T21:19:23.350Z,101267.84
2022-10-05T21:22:26.198Z,101278.56
2022-10-05T21:25:28.622Z,101269.81
2022-10-05T21:28:32.055Z,101274.91
2022-10-05T21:31:34.664Z,101275.34
2022-10-05T21:34:38.411Z,101272.31
2022-10-05T21:37:40.783Z,101281.28
2022-10-05T21:40:45.246Z,101272.22
2022-10-05T21:43:47.533Z,101259.31
2022-10-05T21:46:50.003Z,101278.28
2022-10-05T21:49:52.297Z,101269.63
2022-10-05T21:52:54.851Z,101277.00
2022-10-05T21:56:00.841Z,101265.09
2022-10-05T21:59:07.713Z,101272.50
2022-10-05T22:02:10.048Z,101264.03
2022-10-05T22:05:12.377Z,101258.25
2022-10-05T22:08:29.300Z,101265.06
2022-10-05T22:11:32.498Z,101259.28
2022-10-05T22:14:34.787Z,101258.72
2022-10-05T22:17:37.119Z,101254.66
2022-10-05T22:20:39.361Z,101251.00
2022-10-05T22:23:43.199Z,101253.69
2022-10-05T22:26:47.283Z,101267.44
2022-10-05T22:29:49.936Z,101268.91
2022-10-05T22:32:52.159Z,101251.59
2022-10-05T22:35:54.575Z,101255.13
2022-10-05T22:38:56.824Z,101256.16
2022-10-05T22:41:59.391Z,101255.44
2022-10-05T22:45:01.718Z,101244.50
2022-10-05T22:48:04.174Z,101237.50
2022-10-05T22:51:07.194Z,101249.28
2022-10-05T22:58:45.224Z,101247.78
2022-10-05T23:01:47.532Z,101240.41
2022-10-05T23:04:49.940Z,101235.34
2022-10-05T23:07:52.853Z,101243.97
2022-10-05T23:10:55.104Z,101224.66
2022-10-05T23:13:57.542Z,101232.47
2022-10-05T23:16:59.909Z,101227.56
2022-10-05T23:20:03.310Z,101223.44
2022-10-05T23:23:05.515Z,101225.28
2022-10-05T23:26:09.942Z,101220.78
2022-10-05T23:29:12.235Z,101226.34
2022-10-05T23:32:14.497Z,101217.50
2022-10-05T23:35:16.843Z,101213.34
2022-10-05T23:38:19.112Z,101219.91
2022-10-05T23:41:21.396Z,101222.41
2022-10-05T23:44:23.727Z,101219.97
2022-10-05T23:47:25.978Z,101218.13
2022-10-05T23:50:28.311Z,101217.13
2022-10-05T23:53:30.584Z,101222.91
2022-10-05T23:56:33.293Z,101211.78
2022-10-05T23:59:35.566Z,101199.28
